Triton Achiever — WDD8829 — position and weather

sailwx.info

Track history (hours):
 
Tides and Currents Weather Stations Pressure Air Temp Water Temp Dewpoint Dewpoint Depression Visibility Wind Speed Wind Dir Waves Ship Positions

Triton Achiever

Owner: Triton Achiever, Belle Chasse, LA. More information available from US FCC via Universal Licensing System and Coast Guard Vessel Documentation Center.

Last reported at 2017-Oct-02 07:49 UTC. Time now 2017-Nov-24 05:50 UTC.
Position N 29°32' W 090°51'.
Warning: this ship's position is 52 days out of date.

Length 50 m; draft 4 m.

Type: Diving. MMSI: 367303260.

Date/timePositionNaut miles runAvg speedWind from/ knotsBaromVisibWave heightAir tempDewpointWater temp
2017-Oct-02 07:49N 29°32' W 090°51'2 7.6
2017-Oct-02 07:30N 29°32' W 090°49'4 7.1
2017-Oct-02 07:00N 29°34' W 090°45'2 4.5
2017-Oct-02 06:31N 29°33' W 090°42'4 7.2
2017-Oct-02 06:00N 29°30' W 090°43'  
2017-Sep-25 19:04N 29°25' W 090°44'0 7.9
2017-Sep-25 19:00N 29°25' W 090°43'4 8.2
2017-Sep-25 18:30N 29°29' W 090°43'4 7.8
2017-Sep-25 18:01N 29°33' W 090°42'2 4.7
2017-Sep-25 17:31N 29°34' W 090°45'  
Track history (hours):
 
Tides and Currents Weather Stations Pressure Air Temp Water Temp Dewpoint Dewpoint Depression Visibility Wind Speed Wind Dir Waves Ship Positions

Triton Achiever

Owner: Triton Achiever, Belle Chasse, LA. More information available from US FCC via Universal Licensing System and Coast Guard Vessel Documentation Center.

Last reported at 2017-Oct-02 07:49 UTC. Time now 2017-Nov-24 05:50 UTC.
Position N 29°32' W 090°51'.
Warning: this ship's position is 52 days out of date.

Length 50 m; draft 4 m.

Type: Diving. MMSI: 367303260.

Date/timePositionNaut miles runAvg speedWind from/ knotsBaromVisibWave heightAir tempDewpointWater temp
2017-Oct-02 07:49N 29°32' W 090°51'2 7.6
2017-Oct-02 07:30N 29°32' W 090°49'4 7.1
2017-Oct-02 07:00N 29°34' W 090°45'2 4.5
2017-Oct-02 06:31N 29°33' W 090°42'4 7.2
2017-Oct-02 06:00N 29°30' W 090°43'  
2017-Sep-25 19:04N 29°25' W 090°44'0 7.9
2017-Sep-25 19:00N 29°25' W 090°43'4 8.2
2017-Sep-25 18:30N 29°29' W 090°43'4 7.8
2017-Sep-25 18:01N 29°33' W 090°42'2 4.7
2017-Sep-25 17:31N 29°34' W 090°45'  

Dump ship's entire track history